Hauptseite
METAR-TAF:

METAR-TAF

Flughäfen :

Cuneo, Italien

Flughafen Cuneo

Breite: 44-32-47N, Länge: 007-37-20E, Höhe: 386 m

Beobachtung

Neuester Wetterbericht von vor 4 Stunden und 21 Minuten, um 19:50 UTC
Wind 3 kt aus Südwest
Temperatur 2°C
Luftfeuchtigkeit 87%
Luftdruck 1015 hPa
Sichtweite 10 km oder mehr
keine Wolken unter 1500 m und keine Kumulonimbus oder Gewitterwolken

METAR: LIMZ 191950Z 23003KT CAVOK 02/M00 Q1015

Zeit: 01:11 (00:11 UTC)

Prognose

Neuester Wetterbericht von vor 7 Stunden und 11 Minuten, um 17:00 UTC
Gültige Prognose vom 19 um 18 UTC bis 20 um 18 UTC
Wind 5 kt aus unterschiedlichen Richtungen
Sichtweite 10 km oder mehr
keine Wolken unter 1500 m und keine Kumulonimbus oder Gewitterwolken
Zeitweise
vom 20 um 02 UTC bis 20 um 07 UTC
Sichtweite: 4000 m
feuchter Dunst

TAF: LIMZ 191700Z 1918/2018 VRB05KT CAVOK TEMPO 2002/2007 4000 BR

Wetterbeobachtungen und Prognosen von mehr als 4000 Flughäfen (METAR und TAF Bericht).

Die verfügbaren Stationen werden durch gelbe und rote Markierungen auf der Karte dargestellt.

Führen Sie die Maus auf sie, um den Namen der Station zu sehen.

Darauf klicken, um die Beobachtung von Wetterbeobachtungen und Prognosen zu sehen.

Um die Karte zu ändern : klicken Sie auf den grünen Tasten mit einem schwarzen Kreuz Zum Vergrößern, auf den grünen Button mit einem Gedankenstrich zu verkleinern, oder auf die grünen Pfeile für benachbarte Karten.


METAR-TAF: